createdAt,value
2023-02-10T00:01:26.921Z,100218.03
2023-02-10T00:03:54.504Z,100224.22
2023-02-10T00:06:24.749Z,100255.69
2023-02-10T00:08:58.337Z,100269.66
2023-02-10T00:11:45.778Z,100267.97
2023-02-10T00:14:14.240Z,100295.09
2023-02-10T00:16:41.053Z,100281.13
2023-02-10T00:19:07.760Z,100293.38
2023-02-10T00:21:35.145Z,100308.25
2023-02-10T00:24:02.265Z,100301.28
2023-02-10T00:26:29.127Z,100294.31
2023-02-10T00:28:55.895Z,100316.19
2023-02-10T00:31:22.721Z,100324.09
2023-02-10T00:33:49.703Z,100318.88
2023-02-10T00:36:16.989Z,100331.13
2023-02-10T00:38:43.956Z,100349.53
2023-02-10T00:41:14.237Z,100356.53
2023-02-10T00:43:41.163Z,100332.97
2023-02-10T00:46:08.224Z,100346.94
2023-02-10T00:48:35.724Z,100357.47
2023-02-10T00:51:03.310Z,100360.16
2023-02-10T00:53:30.745Z,100360.16
2023-02-10T00:55:57.486Z,100361.94
2023-02-10T00:58:24.915Z,100368.97
2023-02-10T01:00:52.532Z,100368.13
2023-02-10T01:03:19.331Z,100364.63
2023-02-10T01:05:46.703Z,100370.81
2023-02-10T01:08:14.873Z,100371.69
2023-02-10T01:10:42.148Z,100388.34
2023-02-10T01:13:10.361Z,100385.75
2023-02-10T01:15:37.246Z,100380.56
2023-02-10T01:18:04.007Z,100382.31
2023-02-10T01:20:30.776Z,100384.97
2023-02-10T01:22:57.431Z,100391.13
2023-02-10T01:25:24.083Z,100392.91
2023-02-10T01:27:50.815Z,100400.81
2023-02-10T01:30:17.561Z,100419.19
2023-02-10T01:32:44.251Z,100413.09
2023-02-10T01:35:10.902Z,100412.28
2023-02-10T01:37:38.986Z,100424.53
2023-02-10T01:40:06.253Z,100434.16
2023-02-10T01:42:32.960Z,100418.50
2023-02-10T01:45:19.194Z,100434.22
2023-02-10T01:47:48.336Z,100436.00
2023-02-10T01:50:17.723Z,100435.16
2023-02-10T01:52:45.507Z,100446.53
2023-02-10T01:55:15.668Z,100466.63
2023-02-10T01:57:44.593Z,100480.59
2023-02-10T02:00:12.940Z,100476.28
2023-02-10T02:02:41.166Z,100484.16
2023-02-10T02:05:20.437Z,100491.13
2023-02-10T02:07:49.177Z,100490.28
2023-02-10T02:10:16.897Z,100495.50
2023-02-10T02:12:56.784Z,100506.00
2023-02-10T02:15:29.237Z,100515.63
2023-02-10T02:18:04.525Z,100516.47
2023-02-10T02:20:43.399Z,100522.59
2023-02-10T02:24:03.143Z,100525.22
2023-02-10T02:27:08.571Z,100518.28
2023-02-10T02:30:00.258Z,100541.81
2023-02-10T02:32:32.556Z,100540.09
2023-02-10T02:35:13.224Z,100551.44
2023-02-10T02:37:46.927Z,100544.47
2023-02-10T02:40:16.206Z,100553.22
2023-02-10T02:42:42.873Z,100548.88
2023-02-10T02:45:21.554Z,100558.50
2023-02-10T02:48:09.469Z,100559.34
2023-02-10T02:50:36.269Z,100572.47
2023-02-10T02:53:27.382Z,100569.88
2023-02-10T02:56:13.668Z,100576.84
2023-02-10T02:59:00.796Z,100593.41
2023-02-10T03:01:36.338Z,100584.72
2023-02-10T03:04:04.125Z,100592.56
2023-02-10T03:06:30.864Z,100586.47
2023-02-10T03:08:57.783Z,100581.22
2023-02-10T03:11:24.558Z,100582.09
2023-02-10T03:13:51.208Z,100591.69
2023-02-10T03:16:17.942Z,100593.44
2023-02-10T03:18:44.825Z,100579.50
2023-02-10T03:21:11.476Z,100582.13
2023-02-10T03:23:38.246Z,100598.69
2023-02-10T03:26:04.973Z,100598.69
2023-02-10T03:28:31.689Z,100586.50
2023-02-10T03:30:58.442Z,100597.81
2023-02-10T03:33:25.282Z,100592.59
2023-02-10T03:35:55.011Z,100596.09
2023-02-10T03:38:22.034Z,100608.28
2023-02-10T03:40:52.129Z,100616.16
2023-02-10T03:43:20.750Z,100627.47
2023-02-10T03:45:47.977Z,100619.63
2023-02-10T03:48:16.742Z,100636.19
2023-02-10T03:50:44.011Z,100642.25
2023-02-10T03:53:11.097Z,100633.56
2023-02-10T03:55:38.209Z,100645.75
2023-02-10T03:58:04.936Z,100646.66
2023-02-10T04:00:32.296Z,100655.34
2023-02-10T04:02:58.950Z,100657.94
2023-02-10T04:05:25.678Z,100684.97
2023-02-10T04:07:52.374Z,100676.25
2023-02-10T04:10:19.106Z,100684.94
2023-02-10T04:12:45.772Z,100678.88
2023-02-10T04:15:12.443Z,100678.84
2023-02-10T04:17:39.088Z,100689.31
2023-02-10T04:20:06.181Z,100693.69
2023-02-10T04:22:32.890Z,100699.78
2023-02-10T04:24:59.544Z,100698.91
2023-02-10T04:27:26.204Z,100693.69
2023-02-10T04:29:52.873Z,100709.38
2023-02-10T04:32:19.561Z,100699.78
2023-02-10T04:34:48.988Z,100723.28
2023-02-10T04:37:15.983Z,100711.13
2023-02-10T04:39:42.700Z,100711.97
2023-02-10T04:42:09.835Z,100717.19
2023-02-10T04:44:36.558Z,100719.81
2023-02-10T04:47:03.368Z,100723.31
2023-02-10T04:49:30.043Z,100728.53
2023-02-10T04:51:56.758Z,100737.22
2023-02-10T04:54:24.951Z,100731.13
2023-02-10T04:56:51.677Z,100739.84
2023-02-10T04:59:18.551Z,100741.59
2023-02-10T05:01:45.309Z,100748.56
2023-02-10T05:04:12.188Z,100754.66
2023-02-10T05:06:39.069Z,100747.69
2023-02-10T05:09:05.829Z,100772.06
2023-02-10T05:11:32.508Z,100768.56
2023-02-10T05:14:00.001Z,100765.13
2023-02-10T05:16:28.270Z,100772.97
2023-02-10T05:18:55.003Z,100779.91
2023-02-10T05:21:21.912Z,100777.31
2023-02-10T05:23:48.647Z,100778.19
2023-02-10T05:26:15.326Z,100793.00
2023-02-10T05:28:41.978Z,100795.63
2023-02-10T05:31:09.605Z,100803.44
2023-02-10T05:33:36.892Z,100815.63
2023-02-10T05:36:03.878Z,100814.75
2023-02-10T05:38:30.620Z,100812.13
2023-02-10T05:40:57.404Z,100820.84
2023-02-10T05:43:24.120Z,100833.03
2023-02-10T05:45:51.272Z,100853.06
2023-02-10T05:48:18.129Z,100855.66
2023-02-10T05:50:44.887Z,100869.59
2023-02-10T05:53:11.551Z,100863.50
2023-02-10T05:55:38.281Z,100875.69
2023-02-10T05:58:05.329Z,100889.63
2023-02-10T06:00:32.269Z,100925.31
2023-02-10T06:02:59.091Z,100914.88
2023-02-10T06:05:25.876Z,100913.13
2023-02-10T06:07:52.701Z,100930.56
2023-02-10T06:10:19.493Z,100921.84
2023-02-10T06:12:46.354Z,100934.88
2023-02-10T06:15:13.027Z,100927.94
2023-02-10T06:17:39.845Z,100938.38
2023-02-10T06:20:06.804Z,100948.00
2023-02-10T06:22:36.042Z,100944.50
2023-02-10T06:25:02.695Z,100949.75
2023-02-10T06:27:29.413Z,100967.13
2023-02-10T06:29:56.725Z,100969.72
2023-02-10T06:32:23.478Z,100978.44
2023-02-10T06:34:50.319Z,101000.19
2023-02-10T06:37:17.015Z,101006.28
2023-02-10T06:39:43.734Z,101009.75
2023-02-10T06:42:10.434Z,101025.44
2023-02-10T06:44:37.166Z,101024.56
2023-02-10T06:47:03.929Z,101028.03
2023-02-10T06:49:30.694Z,101040.19
2023-02-10T06:51:57.415Z,101050.66
2023-02-10T06:54:24.182Z,101051.53
2023-02-10T06:56:50.866Z,101052.41
2023-02-10T06:59:18.031Z,101081.97
2023-02-10T07:01:44.839Z,101068.06
2023-02-10T07:04:11.867Z,101079.34
2023-02-10T07:06:39.666Z,101074.13
2023-02-10T07:09:07.244Z,101079.34
2023-02-10T07:11:34.826Z,101094.16
2023-02-10T07:14:01.529Z,101102.84
2023-02-10T07:16:29.443Z,101115.03
2023-02-10T07:18:56.282Z,101121.97
2023-02-10T07:21:23.042Z,101132.44
2023-02-10T07:23:49.689Z,101139.41
2023-02-10T07:26:19.036Z,101128.94
2023-02-10T07:28:46.211Z,101142.84
2023-02-10T07:31:13.090Z,101144.59
2023-02-10T07:33:40.242Z,101155.91
2023-02-10T07:36:07.960Z,101163.78
2023-02-10T07:38:35.098Z,101190.78
2023-02-10T07:41:01.834Z,101183.84
2023-02-10T07:43:28.586Z,101188.22
2023-02-10T07:45:55.312Z,101183.00
2023-02-10T07:48:22.074Z,101192.59
2023-02-10T07:50:49.165Z,101205.69
2023-02-10T07:53:15.846Z,101196.97
2023-02-10T07:55:42.521Z,101228.31
2023-02-10T07:58:09.249Z,101210.03
2023-02-10T08:00:36.413Z,101215.31
2023-02-10T08:03:03.247Z,101231.84
2023-02-10T08:05:30.400Z,101231.88
2023-02-10T08:07:57.337Z,101242.34
2023-02-10T08:10:24.178Z,101260.66
2023-02-10T08:12:50.936Z,101256.31
2023-02-10T08:15:18.252Z,101261.53
2023-02-10T08:17:45.797Z,101268.53
2023-02-10T08:20:12.804Z,101268.53
2023-02-10T08:22:39.582Z,101271.16
2023-02-10T08:25:06.668Z,101270.31
2023-02-10T08:27:33.581Z,101278.16
2023-02-10T08:30:00.232Z,101286.91
2023-02-10T08:32:26.982Z,101287.81
2023-02-10T08:34:53.853Z,101303.47
2023-02-10T08:37:20.839Z,101305.25
2023-02-10T08:39:47.507Z,101308.78
2023-02-10T08:42:14.229Z,101317.50
2023-02-10T08:44:40.953Z,101319.28
2023-02-10T08:47:09.707Z,101333.22
2023-02-10T08:49:36.542Z,101330.63
2023-02-10T08:52:03.491Z,101341.09
2023-02-10T08:54:30.170Z,101345.47
2023-02-10T08:56:57.280Z,101350.75
2023-02-10T08:59:24.318Z,101352.50
2023-02-10T09:01:51.453Z,101357.75
2023-02-10T09:04:18.794Z,101371.78
2023-02-10T09:06:45.648Z,101361.34
2023-02-10T09:09:15.360Z,101373.59
2023-02-10T09:11:43.086Z,101362.28
2023-02-10T09:14:10.342Z,101366.66
2023-02-10T09:16:37.435Z,101367.53
2023-02-10T09:19:05.060Z,101374.59
2023-02-10T09:21:45.042Z,101375.50
2023-02-10T09:24:13.218Z,101388.59
2023-02-10T09:26:39.876Z,101383.38
2023-02-10T09:29:06.734Z,101389.53
2023-02-10T09:31:34.723Z,101394.81
2023-02-10T09:34:01.752Z,101407.00
2023-02-10T09:36:28.487Z,101415.78
2023-02-10T09:38:56.800Z,101414.97
2023-02-10T09:41:32.495Z,101415.00
2023-02-10T09:44:21.617Z,101415.94
2023-02-10T09:47:09.942Z,101417.72
2023-02-10T09:49:45.528Z,101412.50
2023-02-10T09:52:40.104Z,101421.28
2023-02-10T09:55:16.582Z,101428.25
2023-02-10T09:57:52.754Z,101421.28
2023-02-10T10:00:32.247Z,101431.75
2023-02-10T10:03:01.422Z,101437.94
2023-02-10T10:05:57.467Z,101441.47
2023-02-10T10:08:33.843Z,101446.75
2023-02-10T10:11:17.072Z,101443.25
2023-02-10T10:13:43.741Z,101445.91
2023-02-10T10:16:16.461Z,101444.16
2023-02-10T10:19:05.136Z,101452.03
2023-02-10T10:21:44.721Z,101438.94
2023-02-10T10:24:38.724Z,101438.09
2023-02-10T10:27:34.403Z,101448.63
2023-02-10T10:30:13.591Z,101447.72
2023-02-10T10:33:00.425Z,101452.09
2023-02-10T10:35:40.660Z,101461.66
2023-02-10T10:38:16.090Z,101466.06
2023-02-10T10:40:46.886Z,101467.81
2023-02-10T10:43:22.250Z,101473.94
2023-02-10T10:46:07.411Z,101474.84
2023-02-10T10:48:36.950Z,101466.03
2023-02-10T10:51:06.040Z,101470.44
2023-02-10T10:53:48.889Z,101464.31
2023-02-10T10:56:36.593Z,101473.06
2023-02-10T10:59:18.279Z,101474.78
2023-02-10T11:01:47.735Z,101476.53
2023-02-10T11:04:17.599Z,101476.53
2023-02-10T11:06:50.873Z,101465.16
2023-02-10T11:09:41.836Z,101480.91
2023-02-10T11:12:35.554Z,101482.59
2023-02-10T11:15:20.640Z,101479.16
2023-02-10T11:17:48.823Z,101479.16
2023-02-10T11:20:16.348Z,101484.34
2023-02-10T11:22:44.425Z,101494.84
2023-02-10T11:25:37.270Z,101485.25
2023-02-10T11:28:08.082Z,101481.75
2023-02-10T11:30:37.639Z,101478.22
2023-02-10T11:33:06.661Z,101478.22
2023-02-10T11:35:34.806Z,101493.06
2023-02-10T11:38:06.246Z,101478.25
2023-02-10T11:41:11.488Z,101476.47
2023-02-10T11:43:45.408Z,101466.00
2023-02-10T11:46:31.981Z,101471.22
2023-02-10T11:49:06.237Z,101480.84
2023-02-10T11:51:33.040Z,101473.84
2023-02-10T11:54:00.632Z,101472.97
2023-02-10T11:57:00.820Z,101490.44
2023-02-10T11:59:48.859Z,101473.91
2023-02-10T12:02:18.666Z,101488.75
2023-02-10T12:04:51.352Z,101475.69
2023-02-10T12:07:36.829Z,101477.44
2023-02-10T12:10:23.161Z,101490.56
2023-02-10T12:13:17.481Z,101486.19
2023-02-10T12:15:57.244Z,101512.38
2023-02-10T12:18:30.906Z,101505.44
2023-02-10T12:21:06.705Z,101508.03
2023-02-10T12:23:54.527Z,101510.66
2023-02-10T12:26:42.361Z,101513.31
2023-02-10T12:29:37.199Z,101514.19
2023-02-10T12:32:14.947Z,101517.66
2023-02-10T12:35:00.143Z,101529.94
2023-02-10T12:37:53.288Z,101530.81
2023-02-10T12:40:33.748Z,101514.22
2023-02-10T12:43:13.909Z,101520.34
2023-02-10T12:46:11.528Z,101529.94
2023-02-10T12:48:56.573Z,101529.03
2023-02-10T12:51:37.125Z,101528.13
2023-02-10T12:54:13.582Z,101538.56
2023-02-10T12:57:06.983Z,101537.72
2023-02-10T12:59:50.988Z,101542.03
2023-02-10T13:02:27.532Z,101553.41
2023-02-10T13:04:59.217Z,101540.31
2023-02-10T13:07:44.382Z,101542.91
2023-02-10T13:10:27.387Z,101546.41
2023-02-10T13:12:59.278Z,101545.50
2023-02-10T13:15:38.582Z,101539.41
2023-02-10T13:18:23.296Z,101528.91
2023-02-10T13:20:56.202Z,101528.06
2023-02-10T13:23:37.383Z,101521.09
2023-02-10T13:26:04.418Z,101524.59
2023-02-10T13:28:41.431Z,101514.09
2023-02-10T13:31:25.957Z,101515.00
2023-02-10T13:34:19.141Z,101515.00
2023-02-10T13:36:52.751Z,101514.97
2023-02-10T13:39:23.065Z,101508.00
2023-02-10T13:42:04.605Z,101509.72
2023-02-10T13:44:34.116Z,101516.72
2023-02-10T13:47:20.569Z,101519.34
2023-02-10T13:50:04.534Z,101519.34
2023-02-10T13:52:35.850Z,101507.09
2023-02-10T13:55:11.676Z,101509.72
2023-02-10T13:57:40.372Z,101512.31
2023-02-10T14:00:14.933Z,101519.28
2023-02-10T14:02:41.789Z,101542.00
2023-02-10T14:05:35.236Z,101546.34
2023-02-10T14:08:14.343Z,101533.22
2023-02-10T14:10:41.818Z,101530.56
2023-02-10T14:13:28.169Z,101534.03
2023-02-10T14:16:06.094Z,101541.00
2023-02-10T14:18:35.703Z,101536.59
2023-02-10T14:21:12.819Z,101536.56
2023-02-10T14:23:43.266Z,101531.31
2023-02-10T14:26:20.092Z,101522.53
2023-02-10T14:29:11.264Z,101506.78
2023-02-10T14:31:41.387Z,101503.25
2023-02-10T14:34:25.226Z,101495.38
2023-02-10T14:36:58.148Z,101490.13
2023-02-10T14:39:31.615Z,101488.34
2023-02-10T14:42:01.139Z,101482.19
2023-02-10T14:44:36.035Z,101476.06
2023-02-10T14:47:03.186Z,101475.16
2023-02-10T14:49:34.535Z,101485.59
2023-02-10T14:52:01.229Z,101478.56
2023-02-10T14:54:27.960Z,101490.75
2023-02-10T14:56:58.593Z,101508.16
2023-02-10T14:59:28.708Z,101497.63
2023-02-10T15:02:04.791Z,101495.88
2023-02-10T15:04:45.174Z,101492.38
2023-02-10T15:07:20.215Z,101491.47
2023-02-10T15:09:47.609Z,101497.56
2023-02-10T15:12:20.053Z,101499.28
2023-02-10T15:15:04.578Z,101499.25
2023-02-10T15:17:51.520Z,101503.59
2023-02-10T15:20:29.499Z,101497.47
2023-02-10T15:22:59.702Z,101486.13
2023-02-10T15:25:31.836Z,101485.22
2023-02-10T15:28:03.345Z,101484.31
2023-02-10T15:30:31.614Z,101479.06
2023-02-10T15:33:00.472Z,101473.78
2023-02-10T15:35:27.714Z,101471.19
2023-02-10T15:38:03.636Z,101470.28
2023-02-10T15:40:31.329Z,101465.88
2023-02-10T15:43:06.969Z,101463.22
2023-02-10T15:45:33.826Z,101457.13
2023-02-10T15:48:03.010Z,101444.88
2023-02-10T15:50:30.742Z,101446.59
2023-02-10T15:52:58.669Z,101444.84
2023-02-10T15:55:38.335Z,101449.19
2023-02-10T15:58:06.956Z,101434.38
2023-02-10T16:00:36.370Z,101435.25
2023-02-10T16:03:03.757Z,101441.31
2023-02-10T16:05:30.919Z,101440.44
2023-02-10T16:08:05.330Z,101433.47
2023-02-10T16:10:32.542Z,101419.53
2023-02-10T16:12:59.948Z,101413.41
2023-02-10T16:15:27.838Z,101411.69
2023-02-10T16:17:58.668Z,101398.56
2023-02-10T16:20:27.885Z,101400.31
2023-02-10T16:22:54.975Z,101394.16
2023-02-10T16:25:25.329Z,101400.31
2023-02-10T16:27:53.042Z,101387.28
2023-02-10T16:30:29.839Z,101387.28
2023-02-10T16:32:57.432Z,101374.16
2023-02-10T16:35:25.076Z,101371.56
2023-02-10T16:37:55.129Z,101369.88
2023-02-10T16:40:42.636Z,101363.84
2023-02-10T16:43:09.435Z,101360.38
2023-02-10T16:45:36.364Z,101356.91
2023-02-10T16:48:03.269Z,101346.50
2023-02-10T16:50:42.003Z,101340.34
2023-02-10T16:53:10.414Z,101339.56
2023-02-10T16:55:38.938Z,101326.41
2023-02-10T16:58:08.035Z,101320.31
2023-02-10T17:00:34.935Z,101317.69
2023-02-10T17:03:02.047Z,101315.09
2023-02-10T17:05:30.733Z,101298.53
2023-02-10T17:07:57.837Z,101302.00
2023-02-10T17:10:27.392Z,101282.81
2023-02-10T17:12:54.581Z,101285.44
2023-02-10T17:15:22.235Z,101282.88
2023-02-10T17:17:49.457Z,101270.63
2023-02-10T17:20:29.413Z,101269.78
2023-02-10T17:22:58.098Z,101266.31
2023-02-10T17:25:25.792Z,101260.22
2023-02-10T17:27:54.186Z,101246.31
2023-02-10T17:30:22.999Z,101239.31
2023-02-10T17:32:49.767Z,101223.63
2023-02-10T17:35:19.312Z,101222.78
2023-02-10T17:37:46.542Z,101214.94
2023-02-10T17:40:15.718Z,101207.94
2023-02-10T17:42:46.189Z,101203.63
2023-02-10T17:45:17.566Z,101199.22
2023-02-10T17:47:46.982Z,101199.22
2023-02-10T17:50:16.461Z,101196.63
2023-02-10T17:52:43.501Z,101179.22
2023-02-10T17:55:21.356Z,101172.25
2023-02-10T17:57:49.746Z,101168.78
2023-02-10T18:00:17.654Z,101163.56
2023-02-10T18:02:44.396Z,101143.50
2023-02-10T18:05:11.867Z,101139.16
2023-02-10T18:07:38.651Z,101137.41
2023-02-10T18:10:06.919Z,101128.69
2023-02-10T18:12:33.676Z,101124.31
2023-02-10T18:15:00.457Z,101117.34
2023-02-10T18:17:27.376Z,101119.09
2023-02-10T18:19:54.164Z,101111.22
2023-02-10T18:22:21.022Z,101094.63
2023-02-10T18:24:47.810Z,101092.81
2023-02-10T18:27:14.589Z,101071.03
2023-02-10T18:29:42.373Z,101073.63
2023-02-10T18:32:09.731Z,101066.69
2023-02-10T18:34:37.154Z,101059.69
2023-02-10T18:37:03.846Z,101066.63
2023-02-10T18:39:30.831Z,101053.50
2023-02-10T18:41:57.670Z,101047.41
2023-02-10T18:44:24.467Z,101050.03
2023-02-10T18:46:51.201Z,101029.97
2023-02-10T18:49:17.883Z,101026.50
2023-02-10T18:51:44.592Z,101010.75
2023-02-10T18:54:11.251Z,101005.47
2023-02-10T18:56:38.376Z,101000.19
2023-02-10T18:59:05.120Z,100975.81
2023-02-10T19:01:31.974Z,100977.50
2023-02-10T19:04:03.618Z,100980.09
2023-02-10T19:06:34.602Z,100951.31
2023-02-10T19:09:01.386Z,100941.69
2023-02-10T19:11:28.091Z,100938.19
2023-02-10T19:13:55.969Z,100924.22
2023-02-10T19:16:23.230Z,100908.56
2023-02-10T19:18:50.047Z,100893.75
2023-02-10T19:21:16.819Z,100872.84
2023-02-10T19:23:44.016Z,100865.88
2023-02-10T19:26:12.257Z,100856.31
2023-02-10T19:28:40.003Z,100847.59
2023-02-10T19:31:08.868Z,100836.25
2023-02-10T19:33:37.768Z,100825.78
2023-02-10T19:36:05.755Z,100804.91
2023-02-10T19:38:32.804Z,100784.88
2023-02-10T19:41:05.354Z,100776.13
2023-02-10T19:43:32.138Z,100767.41
2023-02-10T19:45:59.120Z,100749.09
2023-02-10T19:48:27.918Z,100732.56
2023-02-10T19:50:55.333Z,100721.22
2023-02-10T19:53:22.769Z,100702.06
2023-02-10T19:55:50.680Z,100688.97
2023-02-10T19:58:17.704Z,100676.75
2023-02-10T20:00:46.377Z,100672.41
2023-02-10T20:03:16.809Z,100655.84
2023-02-10T20:05:43.855Z,100645.38
2023-02-10T20:08:10.932Z,100643.59
2023-02-10T20:10:37.828Z,100630.56
2023-02-10T20:13:07.493Z,100618.38
2023-02-10T20:15:34.948Z,100607.97
2023-02-10T20:18:01.621Z,100594.94
2023-02-10T20:20:28.329Z,100585.34
2023-02-10T20:22:55.413Z,100569.75
2023-02-10T20:25:22.352Z,100544.53
2023-02-10T20:27:51.048Z,100547.13
2023-02-10T20:30:18.312Z,100534.97
2023-02-10T20:32:45.096Z,100505.41
2023-02-10T20:35:11.956Z,100495.00
2023-02-10T20:37:38.624Z,100486.31
2023-02-10T20:40:05.620Z,100477.63
2023-02-10T20:42:32.331Z,100461.16
2023-02-10T20:45:04.523Z,100440.28
2023-02-10T20:47:32.073Z,100420.31
2023-02-10T20:49:58.751Z,100426.41
2023-02-10T20:52:25.794Z,100427.25
2023-02-10T20:54:52.602Z,100415.09
2023-02-10T20:57:19.246Z,100398.59
2023-02-10T20:59:46.082Z,100362.94
2023-02-10T21:02:14.650Z,100372.53
2023-02-10T21:04:41.714Z,100335.13
2023-02-10T21:07:08.912Z,100323.81
2023-02-10T21:09:36.600Z,100316.84
2023-02-10T21:12:13.330Z,100298.59
2023-02-10T21:14:43.630Z,100282.06
2023-02-10T21:17:10.741Z,100285.53
2023-02-10T21:19:37.763Z,100257.69
2023-02-10T21:22:05.168Z,100231.59
2023-02-10T21:24:32.676Z,100231.56
2023-02-10T21:27:00.676Z,100242.00
2023-02-10T21:29:27.743Z,100234.16
2023-02-10T21:32:00.640Z,100211.53
2023-02-10T21:34:27.407Z,100232.38
2023-02-10T21:36:54.663Z,100199.28
2023-02-10T21:39:21.519Z,100178.38
2023-02-10T21:41:53.058Z,100216.66
2023-02-10T21:44:23.039Z,100187.91
2023-02-10T21:46:53.088Z,100200.94
2023-02-10T21:49:21.772Z,100186.97
2023-02-10T21:51:49.306Z,100186.09
2023-02-10T21:54:16.767Z,100172.13
2023-02-10T21:56:43.470Z,100167.72
2023-02-10T21:59:10.985Z,100156.41
2023-02-10T22:01:40.075Z,100145.94
2023-02-10T22:04:06.911Z,100134.59
2023-02-10T22:06:39.221Z,100135.44
2023-02-10T22:09:07.915Z,100117.97
2023-02-10T22:11:35.106Z,100105.75
2023-02-10T22:14:01.891Z,100097.00
2023-02-10T22:16:28.607Z,100087.38
2023-02-10T22:18:55.374Z,100084.72
2023-02-10T22:21:25.033Z,100070.72
2023-02-10T22:23:52.027Z,100059.38
2023-02-10T22:26:22.385Z,100056.75
2023-02-10T22:28:49.389Z,100064.56
2023-02-10T22:31:25.413Z,100034.91
2023-02-10T22:33:54.478Z,100052.28
2023-02-10T22:36:22.009Z,100044.41
2023-02-10T22:38:49.006Z,100043.50
2023-02-10T22:41:18.675Z,100038.22
2023-02-10T22:43:45.675Z,100017.28
2023-02-10T22:46:13.893Z,100012.00
2023-02-10T22:48:41.084Z,100004.13
2023-02-10T22:51:13.837Z,100002.34
2023-02-10T22:53:41.203Z,99993.59
2023-02-10T22:56:13.160Z,100002.22
2023-02-10T22:58:40.507Z,99997.84
2023-02-10T23:01:07.709Z,99999.53
2023-02-10T23:03:34.455Z,99989.94
2023-02-10T23:06:01.593Z,99986.41
2023-02-10T23:08:28.560Z,99989.00
2023-02-10T23:10:56.003Z,99982.00
2023-02-10T23:13:23.368Z,99982.88
2023-02-10T23:15:54.795Z,99971.56
2023-02-10T23:18:21.637Z,99955.78
2023-02-10T23:20:48.711Z,99950.59
2023-02-10T23:23:15.594Z,99945.31
2023-02-10T23:25:51.356Z,99946.22
2023-02-10T23:28:20.015Z,99931.41
2023-02-10T23:30:47.030Z,99933.13
2023-02-10T23:33:13.714Z,99928.75
2023-02-10T23:35:42.487Z,99920.91
2023-02-10T23:38:10.225Z,99913.06
2023-02-10T23:40:37.888Z,99915.69
2023-02-10T23:43:05.886Z,99906.06
2023-02-10T23:45:33.558Z,99910.41
2023-02-10T23:48:00.842Z,99899.03
2023-02-10T23:50:28.385Z,99908.59
2023-02-10T23:52:55.127Z,99898.13
2023-02-10T23:55:21.947Z,99899.91
2023-02-10T23:57:48.839Z,99907.66
